createdAt,value
2019-05-18T00:00:53.778Z,68.43
2019-05-18T00:01:53.759Z,69.38
2019-05-18T00:02:53.749Z,69.29
2019-05-18T00:03:53.730Z,70.05
2019-05-18T00:04:53.713Z,69.95
2019-05-18T00:05:53.706Z,69.95
2019-05-18T00:06:53.694Z,70.05
2019-05-18T00:07:53.685Z,70.05
2019-05-18T00:08:53.663Z,69.48
2019-05-18T00:09:53.649Z,69.85
2019-05-18T00:10:53.633Z,69.29
2019-05-18T00:11:53.625Z,68.71
2019-05-18T00:12:53.616Z,68.62
2019-05-18T00:13:53.596Z,68.43
2019-05-18T00:14:53.583Z,68.33
2019-05-18T00:15:53.569Z,68.24
2019-05-18T00:16:53.556Z,69.42
2019-05-18T00:17:53.537Z,68.65
2019-05-18T00:18:53.521Z,68.18
2019-05-18T00:19:53.509Z,68.24
2019-05-18T00:20:53.492Z,68.18
2019-05-18T00:21:53.482Z,68.46
2019-05-18T00:22:53.471Z,68.56
2019-05-18T00:23:53.455Z,68.75
2019-05-18T00:24:53.446Z,68.75
2019-05-18T00:25:53.423Z,68.65
2019-05-18T00:26:53.413Z,68.56
2019-05-18T00:27:53.396Z,68.56
2019-05-18T00:28:53.387Z,68.46
2019-05-18T00:29:53.372Z,68.65
2019-05-18T00:30:53.363Z,68.65
2019-05-18T00:31:53.359Z,68.18
2019-05-18T00:32:53.328Z,68.18
2019-05-18T00:33:53.318Z,67.89
2019-05-18T00:34:53.307Z,67.99
2019-05-18T00:35:53.291Z,67.99
2019-05-18T00:36:53.270Z,67.70
2019-05-18T00:37:53.265Z,67.80
2019-05-18T00:38:53.248Z,67.13
2019-05-18T00:39:53.236Z,67.32
2019-05-18T00:40:53.223Z,67.32
2019-05-18T00:41:53.207Z,67.51
2019-05-18T00:42:53.200Z,67.70
2019-05-18T00:43:53.178Z,67.70
2019-05-18T00:44:53.173Z,67.99
2019-05-18T00:45:53.151Z,67.99
2019-05-18T00:46:53.135Z,67.99
2019-05-18T00:47:53.124Z,68.08
2019-05-18T00:48:53.104Z,68.37
2019-05-18T00:49:53.094Z,68.18
2019-05-18T00:50:53.089Z,67.70
2019-05-18T00:51:53.069Z,67.70
2019-05-18T00:52:53.057Z,67.89
2019-05-18T00:53:53.036Z,67.70
2019-05-18T00:54:53.027Z,67.99
2019-05-18T00:55:53.011Z,68.46
2019-05-18T00:56:53.000Z,68.27
2019-05-18T00:57:52.990Z,68.94
2019-05-18T00:58:52.975Z,68.46
2019-05-18T00:59:52.962Z,68.18
2019-05-18T01:00:52.945Z,67.61
2019-05-18T01:01:52.937Z,67.61
2019-05-18T01:02:52.915Z,67.51
2019-05-18T01:03:52.906Z,67.99
2019-05-18T01:04:52.893Z,68.08
2019-05-18T01:05:52.878Z,68.46
2019-05-18T01:06:52.858Z,68.46
2019-05-18T01:07:52.853Z,68.56
2019-05-18T01:08:52.832Z,68.46
2019-05-18T01:09:52.822Z,68.27
2019-05-18T01:10:52.809Z,68.94
2019-05-18T01:11:52.793Z,69.23
2019-05-18T01:12:52.775Z,69.23
2019-05-18T01:13:52.766Z,69.04
2019-05-18T01:14:52.749Z,68.46
2019-05-18T01:15:52.739Z,68.46
2019-05-18T01:16:52.723Z,68.18
2019-05-18T01:17:57.303Z,68.75
2019-05-18T01:18:52.702Z,68.56
2019-05-18T01:19:52.686Z,68.27
2019-05-18T01:20:52.672Z,68.65
2019-05-18T01:21:52.746Z,69.04
2019-05-18T01:22:52.687Z,68.84
2019-05-18T01:23:52.631Z,69.13
2019-05-18T01:24:52.616Z,68.94
2019-05-18T01:25:52.612Z,69.04
2019-05-18T01:26:52.587Z,69.60
2019-05-18T01:27:52.650Z,69.04
2019-05-18T01:28:52.566Z,68.78
2019-05-18T01:29:52.547Z,68.27
2019-05-18T01:30:52.548Z,68.37
2019-05-18T01:31:52.523Z,68.37
2019-05-18T01:32:52.506Z,68.46
2019-05-18T01:33:52.492Z,67.70
2019-05-18T01:34:52.481Z,67.89
2019-05-18T01:35:52.477Z,67.89
2019-05-18T01:36:52.450Z,68.08
2019-05-18T01:37:52.437Z,67.80
2019-05-18T01:38:52.425Z,68.18
2019-05-18T01:39:52.414Z,68.27
2019-05-18T01:40:52.402Z,69.51
2019-05-18T01:41:52.383Z,69.60
2019-05-18T01:42:52.369Z,69.89
2019-05-18T01:43:52.355Z,69.89
2019-05-18T01:44:52.339Z,69.79
2019-05-18T01:45:52.330Z,69.70
2019-05-18T01:46:52.310Z,70.18
2019-05-18T01:47:52.301Z,69.79
2019-05-18T01:48:52.284Z,69.60
2019-05-18T01:49:52.287Z,69.32
2019-05-18T01:50:52.258Z,69.42
2019-05-18T01:51:52.239Z,69.13
2019-05-18T01:52:52.230Z,68.75
2019-05-18T01:53:52.248Z,67.99
2019-05-18T01:54:52.206Z,68.08
2019-05-18T01:55:52.198Z,68.18
2019-05-18T01:56:52.184Z,68.46
2019-05-18T01:57:52.165Z,69.51
2019-05-18T01:58:52.148Z,69.42
2019-05-18T01:59:52.147Z,69.79
2019-05-18T02:00:52.123Z,69.99
2019-05-18T02:01:52.112Z,69.51
2019-05-18T02:02:52.092Z,69.89
2019-05-18T02:03:52.082Z,69.89
2019-05-18T02:04:52.098Z,70.27
2019-05-18T02:05:52.051Z,69.60
2019-05-18T02:06:52.039Z,69.42
2019-05-18T02:07:52.027Z,69.13
2019-05-18T02:08:52.018Z,68.84
2019-05-18T02:09:51.999Z,68.65
2019-05-18T02:10:51.988Z,68.46
2019-05-18T02:11:51.977Z,68.27
2019-05-18T02:12:51.959Z,68.37
2019-05-18T02:13:51.948Z,69.51
2019-05-18T02:14:51.930Z,69.23
2019-05-18T02:15:51.919Z,69.60
2019-05-18T02:16:51.905Z,69.79
2019-05-18T02:17:51.892Z,70.08
2019-05-18T02:18:51.878Z,69.79
2019-05-18T02:19:51.861Z,69.42
2019-05-18T02:20:51.843Z,69.60
2019-05-18T02:21:51.833Z,69.60
2019-05-18T02:22:51.825Z,69.42
2019-05-18T02:23:51.807Z,69.60
2019-05-18T02:24:51.793Z,70.08
2019-05-18T02:25:51.780Z,69.89
2019-05-18T02:26:51.766Z,69.79
2019-05-18T02:27:51.753Z,69.99
2019-05-18T02:28:51.738Z,69.89
2019-05-18T02:29:51.725Z,69.60
2019-05-18T02:30:51.720Z,70.47
2019-05-18T02:31:51.696Z,70.47
2019-05-18T02:32:51.679Z,70.65
2019-05-18T02:33:51.672Z,70.27
2019-05-18T02:34:51.651Z,70.47
2019-05-18T02:35:51.648Z,70.75
2019-05-18T02:36:51.633Z,70.65
2019-05-18T02:37:51.620Z,70.37
2019-05-18T02:38:51.606Z,70.27
2019-05-18T02:39:51.587Z,69.99
2019-05-18T02:40:51.576Z,69.79
2019-05-18T02:41:51.567Z,70.08
2019-05-18T02:42:51.545Z,69.60
2019-05-18T02:43:51.532Z,69.99
2019-05-18T02:44:51.534Z,69.70
2019-05-18T02:45:51.516Z,69.04
2019-05-18T02:46:51.492Z,69.23
2019-05-18T02:47:51.476Z,69.32
2019-05-18T02:48:51.464Z,69.42
2019-05-18T02:49:51.451Z,69.23
2019-05-18T02:50:51.443Z,69.51
2019-05-18T02:51:51.421Z,69.89
2019-05-18T02:52:51.417Z,69.99
2019-05-18T02:53:51.437Z,69.70
2019-05-18T02:54:51.383Z,69.79
2019-05-18T02:55:51.362Z,70.08
2019-05-18T02:56:51.353Z,69.99
2019-05-18T02:57:51.340Z,70.37
2019-05-18T02:58:51.329Z,70.65
2019-05-18T02:59:51.314Z,70.27
2019-05-18T03:00:51.304Z,70.08
2019-05-18T03:01:51.289Z,70.27
2019-05-18T03:02:51.273Z,70.08
2019-05-18T03:03:51.256Z,70.08
2019-05-18T03:04:51.243Z,70.18
2019-05-18T03:05:51.239Z,70.08
2019-05-18T03:06:51.217Z,69.60
2019-05-18T03:07:51.204Z,69.23
2019-05-18T03:08:51.191Z,69.13
2019-05-18T03:09:51.175Z,69.89
2019-05-18T03:10:51.161Z,69.51
2019-05-18T03:11:51.154Z,70.18
2019-05-18T03:12:51.133Z,70.08
2019-05-18T03:13:51.138Z,70.75
2019-05-18T03:14:51.106Z,71.51
2019-05-18T03:15:51.100Z,71.13
2019-05-18T03:16:51.080Z,71.13
2019-05-18T03:17:51.065Z,71.70
2019-05-18T03:19:06.749Z,71.51
2019-05-18T03:19:51.037Z,71.80
2019-05-18T03:20:51.026Z,71.89
2019-05-18T03:21:51.011Z,71.61
2019-05-18T03:22:51.000Z,71.22
2019-05-18T03:23:50.988Z,71.32
2019-05-18T03:24:50.970Z,70.08
2019-05-18T03:25:50.954Z,70.27
2019-05-18T03:26:50.951Z,70.18
2019-05-18T03:27:50.928Z,70.08
2019-05-18T03:28:50.923Z,70.47
2019-05-18T03:29:50.901Z,70.65
2019-05-18T03:30:50.900Z,70.65
2019-05-18T03:31:50.880Z,70.08
2019-05-18T03:32:50.889Z,69.70
2019-05-18T03:33:50.848Z,69.79
2019-05-18T03:34:50.842Z,69.60
2019-05-18T03:35:50.816Z,70.08
2019-05-18T03:36:50.809Z,70.08
2019-05-18T03:37:50.792Z,70.24
2019-05-18T03:38:50.784Z,70.72
2019-05-18T03:39:50.757Z,71.28
2019-05-18T03:40:50.751Z,71.28
2019-05-18T03:41:50.744Z,70.81
2019-05-18T03:42:50.738Z,70.90
2019-05-18T03:43:50.710Z,71.19
2019-05-18T03:44:50.698Z,71.19
2019-05-18T03:45:50.681Z,71.38
2019-05-18T03:46:50.667Z,71.19
2019-05-18T03:47:50.651Z,71.09
2019-05-18T03:48:50.642Z,71.09
2019-05-18T03:49:50.627Z,71.57
2019-05-18T03:50:50.611Z,71.38
2019-05-18T03:51:50.595Z,71.19
2019-05-18T03:52:50.589Z,71.09
2019-05-18T03:53:50.571Z,71.19
2019-05-18T03:54:50.555Z,71.28
2019-05-18T03:55:50.543Z,71.19
2019-05-18T03:56:50.531Z,71.51
2019-05-18T03:57:50.513Z,71.38
2019-05-18T03:58:50.500Z,70.90
2019-05-18T03:59:50.492Z,70.05
2019-05-18T04:00:50.477Z,70.14
2019-05-18T04:01:50.461Z,70.43
2019-05-18T04:02:50.443Z,70.72
2019-05-18T04:03:50.510Z,70.90
2019-05-18T04:04:50.412Z,70.72
2019-05-18T04:05:50.402Z,71.19
2019-05-18T04:06:50.393Z,70.90
2019-05-18T04:07:50.376Z,70.62
2019-05-18T04:08:50.364Z,70.90
2019-05-18T04:09:50.355Z,70.18
2019-05-18T04:10:50.336Z,70.81
2019-05-18T04:11:50.324Z,70.33
2019-05-18T04:12:50.307Z,70.65
2019-05-18T04:13:50.290Z,70.05
2019-05-18T04:14:50.277Z,70.27
2019-05-18T04:15:50.265Z,70.24
2019-05-18T04:16:50.250Z,70.47
2019-05-18T04:17:50.238Z,70.27
2019-05-18T04:18:50.224Z,70.24
2019-05-18T04:19:50.206Z,69.67
2019-05-18T04:20:50.202Z,69.00
2019-05-18T04:21:50.188Z,69.10
2019-05-18T04:22:50.168Z,70.05
2019-05-18T04:23:50.168Z,69.57
2019-05-18T04:24:50.138Z,70.62
2019-05-18T04:25:50.123Z,70.33
2019-05-18T04:26:50.116Z,70.90
2019-05-18T04:27:50.096Z,70.72
2019-05-18T04:28:50.087Z,71.28
2019-05-18T04:29:50.072Z,71.00
2019-05-18T04:30:50.055Z,71.28
2019-05-18T04:31:50.043Z,71.57
2019-05-18T04:32:50.028Z,71.67
2019-05-18T04:33:50.017Z,71.95
2019-05-18T04:34:50.029Z,71.38
2019-05-18T04:35:49.982Z,71.38
2019-05-18T04:36:49.973Z,71.19
2019-05-18T04:37:49.955Z,71.28
2019-05-18T04:38:49.945Z,70.81
2019-05-18T04:39:49.928Z,70.72
2019-05-18T04:40:49.918Z,71.38
2019-05-18T04:41:49.900Z,71.28
2019-05-18T04:42:49.900Z,71.19
2019-05-18T04:43:49.872Z,71.09
2019-05-18T04:44:49.862Z,71.67
2019-05-18T04:45:49.854Z,72.14
2019-05-18T04:46:49.830Z,71.76
2019-05-18T04:47:49.817Z,71.76
2019-05-18T04:48:49.801Z,71.47
2019-05-18T04:50:04.478Z,71.61
2019-05-18T04:50:49.811Z,71.47
2019-05-18T04:51:49.762Z,72.56
2019-05-18T04:52:49.763Z,72.75
2019-05-18T04:53:49.736Z,72.37
2019-05-18T04:54:49.719Z,71.98
2019-05-18T04:55:49.705Z,72.85
2019-05-18T04:56:49.695Z,72.46
2019-05-18T04:57:49.681Z,72.08
2019-05-18T04:58:49.665Z,71.61
2019-05-18T04:59:49.653Z,71.51
2019-05-18T05:00:49.642Z,70.84
2019-05-18T05:01:49.637Z,69.89
2019-05-18T05:02:49.605Z,69.79
2019-05-18T05:03:49.599Z,69.70
2019-05-18T05:04:52.725Z,69.83
2019-05-18T05:05:49.568Z,69.74
2019-05-18T05:06:49.555Z,70.59
2019-05-18T05:07:49.536Z,70.12
2019-05-18T05:08:49.524Z,70.31
2019-05-18T05:09:49.516Z,70.50
2019-05-18T05:10:49.499Z,70.40
2019-05-18T05:11:49.480Z,70.02
2019-05-18T05:12:49.468Z,70.40
2019-05-18T05:13:49.457Z,70.12
2019-05-18T05:14:49.445Z,70.31
2019-05-18T05:15:49.438Z,70.50
2019-05-18T05:16:49.423Z,69.93
2019-05-18T05:17:49.402Z,69.17
2019-05-18T05:18:49.384Z,69.45
2019-05-18T05:19:49.373Z,68.88
2019-05-18T05:20:49.361Z,69.35
2019-05-18T05:21:49.353Z,69.17
2019-05-18T05:22:49.333Z,69.64
2019-05-18T05:23:49.323Z,70.12
2019-05-18T05:24:49.306Z,69.93
2019-05-18T05:25:49.299Z,69.74
2019-05-18T05:26:49.278Z,69.74
2019-05-18T05:27:49.260Z,70.02
2019-05-18T05:28:49.255Z,69.93
2019-05-18T05:29:49.241Z,70.31
2019-05-18T05:30:49.243Z,70.40
2019-05-18T05:31:49.217Z,71.45
2019-05-18T05:32:49.201Z,71.55
2019-05-18T05:33:49.181Z,71.83
2019-05-18T05:34:49.169Z,71.83
2019-05-18T05:35:49.159Z,72.50
2019-05-18T05:36:49.141Z,72.41
2019-05-18T05:37:49.133Z,72.50
2019-05-18T05:38:49.117Z,72.88
2019-05-18T05:39:49.101Z,72.78
2019-05-18T05:40:49.089Z,72.78
2019-05-18T05:41:49.079Z,73.26
2019-05-18T05:42:49.065Z,72.88
2019-05-18T05:43:49.045Z,72.60
2019-05-18T05:44:49.035Z,72.69
2019-05-18T05:45:49.018Z,71.77
2019-05-18T05:46:49.008Z,71.58
2019-05-18T05:47:48.995Z,71.87
2019-05-18T05:48:48.986Z,71.68
2019-05-18T05:49:48.970Z,71.30
2019-05-18T05:50:48.955Z,71.30
2019-05-18T05:51:48.945Z,70.25
2019-05-18T05:52:48.923Z,69.87
2019-05-18T05:53:48.914Z,69.77
2019-05-18T05:54:48.894Z,70.72
2019-05-18T05:55:48.886Z,69.87
2019-05-18T05:56:48.870Z,69.29
2019-05-18T05:57:48.860Z,69.68
2019-05-18T05:58:48.847Z,69.20
2019-05-18T05:59:48.830Z,68.44
2019-05-18T06:00:48.825Z,68.34
2019-05-18T06:01:48.811Z,68.63
2019-05-18T06:02:48.788Z,68.82
2019-05-18T06:03:48.778Z,68.53
2019-05-18T06:04:48.767Z,68.15
2019-05-18T06:05:48.753Z,67.96
2019-05-18T06:06:48.739Z,67.77
2019-05-18T06:07:48.729Z,67.58
2019-05-18T06:08:48.713Z,67.96
2019-05-18T06:09:48.699Z,67.77
2019-05-18T06:10:48.687Z,68.53
2019-05-18T06:11:48.670Z,68.72
2019-05-18T06:12:48.661Z,68.95
2019-05-18T06:13:48.652Z,69.20
2019-05-18T06:14:48.675Z,69.33
2019-05-18T06:15:48.620Z,68.57
2019-05-18T06:16:48.601Z,68.47
2019-05-18T06:17:48.590Z,67.80
2019-05-18T06:18:48.583Z,67.90
2019-05-18T06:19:48.569Z,67.80
2019-05-18T06:20:51.385Z,68.18
2019-05-18T06:21:48.540Z,68.09
2019-05-18T06:22:48.529Z,67.99
2019-05-18T06:23:48.513Z,67.80
2019-05-18T06:24:48.503Z,67.33
2019-05-18T06:25:48.488Z,66.09
2019-05-18T06:26:48.476Z,66.09
2019-05-18T06:27:48.465Z,66.75
2019-05-18T06:28:48.444Z,66.85
2019-05-18T06:29:48.432Z,66.75
2019-05-18T06:30:48.418Z,67.33
2019-05-18T06:31:48.414Z,67.71
2019-05-18T06:32:48.401Z,67.80
2019-05-18T06:33:48.382Z,67.99
2019-05-18T06:34:48.368Z,68.38
2019-05-18T06:35:48.357Z,68.38
2019-05-18T06:36:48.406Z,67.80
2019-05-18T06:37:48.342Z,68.03
2019-05-18T06:38:48.320Z,68.12
2019-05-18T06:39:48.299Z,68.22
2019-05-18T06:40:48.333Z,68.09
2019-05-18T06:41:48.282Z,68.70
2019-05-18T06:42:48.264Z,68.32
2019-05-18T06:43:48.261Z,68.41
2019-05-18T06:44:48.232Z,68.22
2019-05-18T06:45:48.232Z,68.22
2019-05-18T06:46:48.215Z,67.55
2019-05-18T06:47:48.580Z,66.88
2019-05-18T06:48:48.191Z,67.07
2019-05-18T06:49:48.175Z,67.07
2019-05-18T06:50:48.162Z,67.46
2019-05-18T06:51:48.149Z,66.69
2019-05-18T06:52:48.136Z,67.07
2019-05-18T06:53:48.118Z,65.96
2019-05-18T06:54:48.106Z,65.45
2019-05-18T06:55:48.098Z,65.39
2019-05-18T06:56:48.089Z,65.39
2019-05-18T06:57:48.074Z,65.10
2019-05-18T06:58:48.056Z,64.53
2019-05-18T06:59:48.047Z,64.53
2019-05-18T07:00:48.036Z,64.72
2019-05-18T07:01:48.023Z,64.43
2019-05-18T07:02:48.006Z,65.48
2019-05-18T07:03:47.995Z,64.91
2019-05-18T07:04:47.982Z,65.48
2019-05-18T07:05:47.967Z,65.58
2019-05-18T07:06:47.960Z,65.39
2019-05-18T07:07:47.944Z,64.62
2019-05-18T07:08:47.932Z,64.25
2019-05-18T07:09:47.916Z,64.81
2019-05-18T07:10:47.929Z,63.96
2019-05-18T07:11:47.891Z,63.86
2019-05-18T07:12:47.879Z,65.58
2019-05-18T07:13:47.869Z,64.81
2019-05-18T07:14:47.854Z,63.57
2019-05-18T07:15:47.839Z,62.15
2019-05-18T07:16:47.901Z,60.71
2019-05-18T07:17:47.815Z,61.57
2019-05-18T07:18:47.805Z,61.95
2019-05-18T07:19:47.789Z,61.57
2019-05-18T07:20:47.776Z,61.10
2019-05-18T07:21:47.768Z,60.52
2019-05-18T07:22:47.751Z,61.29
2019-05-18T07:23:47.740Z,61.38
2019-05-18T07:24:47.728Z,61.10
2019-05-18T07:25:47.712Z,60.04
2019-05-18T07:26:47.701Z,60.04
2019-05-18T07:27:47.688Z,59.19
2019-05-18T07:28:47.680Z,58.14
2019-05-18T07:29:47.662Z,58.23
2019-05-18T07:30:47.651Z,58.51
2019-05-18T07:31:47.635Z,58.99
2019-05-18T07:32:47.625Z,59.85
2019-05-18T07:33:47.617Z,59.41
2019-05-18T07:34:47.601Z,59.78
2019-05-18T07:35:47.590Z,60.07
2019-05-18T07:36:47.575Z,60.64
2019-05-18T07:37:47.565Z,60.36
2019-05-18T07:38:47.552Z,59.78
2019-05-18T07:39:47.540Z,59.22
2019-05-18T07:40:47.521Z,58.73
2019-05-18T07:41:47.509Z,58.83
2019-05-18T07:42:47.503Z,59.78
2019-05-18T07:43:47.485Z,59.98
2019-05-18T07:44:47.478Z,59.78
2019-05-18T07:45:47.460Z,58.48
2019-05-18T07:46:47.460Z,57.14
2019-05-18T07:47:47.429Z,57.62
2019-05-18T07:48:47.423Z,57.71
2019-05-18T07:49:47.456Z,58.86
2019-05-18T07:50:47.395Z,58.48
2019-05-18T07:51:47.386Z,58.19
2019-05-18T07:52:47.375Z,57.24
2019-05-18T07:53:47.366Z,57.71
2019-05-18T07:54:47.349Z,57.62
2019-05-18T07:55:47.339Z,59.24
2019-05-18T07:56:47.330Z,58.48
2019-05-18T07:57:47.312Z,59.24
2019-05-18T07:58:47.302Z,58.48
2019-05-18T07:59:47.290Z,57.43
2019-05-18T08:00:47.276Z,57.62
2019-05-18T08:01:47.271Z,57.62
2019-05-18T08:02:47.254Z,57.81
2019-05-18T08:03:47.245Z,60.23
2019-05-18T08:04:47.235Z,58.89
2019-05-18T08:05:47.218Z,57.75
2019-05-18T08:06:47.200Z,58.41
2019-05-18T08:07:47.199Z,57.36
2019-05-18T08:08:47.183Z,56.40
2019-05-18T08:09:47.166Z,56.88
2019-05-18T08:10:47.161Z,57.46
2019-05-18T08:11:47.145Z,58.32
2019-05-18T08:12:47.137Z,57.75
2019-05-18T08:13:47.122Z,57.26
2019-05-18T08:14:47.105Z,57.07
2019-05-18T08:15:47.099Z,56.50
2019-05-18T08:16:47.090Z,56.02
2019-05-18T08:17:47.073Z,57.10
2019-05-18T08:18:47.065Z,57.10
2019-05-18T08:19:47.050Z,56.82
2019-05-18T08:20:47.050Z,55.86
2019-05-18T08:21:53.243Z,54.71
2019-05-18T08:22:47.012Z,55.47
2019-05-18T08:23:47.009Z,55.86
2019-05-18T08:24:46.991Z,55.88
2019-05-18T08:25:46.980Z,55.69
2019-05-18T08:26:46.965Z,54.83
2019-05-18T08:27:46.956Z,54.93
2019-05-18T08:28:46.945Z,56.46
2019-05-18T08:29:46.934Z,58.28
2019-05-18T08:30:46.927Z,58.28
2019-05-18T08:31:46.908Z,56.37
2019-05-18T08:32:46.899Z,56.20
2019-05-18T08:33:46.886Z,55.24
2019-05-18T08:34:46.881Z,55.44
2019-05-18T08:35:46.864Z,55.05
2019-05-18T08:36:46.852Z,54.67
2019-05-18T08:37:46.847Z,55.15
2019-05-18T08:38:46.832Z,55.15
2019-05-18T08:39:46.821Z,55.18
2019-05-18T08:40:46.811Z,55.34
2019-05-18T08:41:48.772Z,54.86
2019-05-18T08:42:46.790Z,55.46
2019-05-18T08:43:46.776Z,54.50
2019-05-18T08:44:46.767Z,54.22
2019-05-18T08:45:46.758Z,54.41
2019-05-18T08:46:46.741Z,54.79
2019-05-18T08:47:46.734Z,54.89
2019-05-18T08:48:46.721Z,54.41
2019-05-18T08:49:46.705Z,53.74
2019-05-18T08:50:46.695Z,53.07
2019-05-18T08:51:46.690Z,53.55
2019-05-18T08:52:46.668Z,53.83
2019-05-18T08:53:46.667Z,52.04
2019-05-18T08:54:46.653Z,50.79
2019-05-18T08:55:46.650Z,49.16
2019-05-18T08:56:46.630Z,48.30
2019-05-18T08:57:46.623Z,46.67
2019-05-18T08:58:46.615Z,45.81
2019-05-18T08:59:46.599Z,45.23
2019-05-18T09:00:46.596Z,45.14
2019-05-18T09:01:46.589Z,44.76
2019-05-18T09:02:46.561Z,45.23
2019-05-18T09:03:46.561Z,46.17
2019-05-18T09:04:46.544Z,47.06
2019-05-18T09:05:46.537Z,48.88
2019-05-18T09:06:46.517Z,48.49
2019-05-18T09:07:46.519Z,47.73
2019-05-18T09:08:46.502Z,47.25
2019-05-18T09:09:46.495Z,48.78
2019-05-18T09:10:46.479Z,48.88
2019-05-18T09:11:46.480Z,48.21
2019-05-18T09:12:46.459Z,46.29
2019-05-18T09:13:46.450Z,46.67
2019-05-18T09:14:46.439Z,47.34
2019-05-18T09:15:46.432Z,48.02
2019-05-18T09:16:46.418Z,46.58
2019-05-18T09:17:46.410Z,45.90
2019-05-18T09:18:46.406Z,45.43
2019-05-18T09:19:46.386Z,45.72
2019-05-18T09:20:46.377Z,46.48
2019-05-18T09:21:46.369Z,46.00
2019-05-18T09:22:46.360Z,46.17
2019-05-18T09:23:46.360Z,46.96
2019-05-18T09:24:46.342Z,45.90
2019-05-18T09:25:46.324Z,45.69
2019-05-18T09:26:46.316Z,46.36
2019-05-18T09:27:46.306Z,45.79
2019-05-18T09:28:46.289Z,47.22
2019-05-18T09:29:46.281Z,47.22
2019-05-18T09:30:46.271Z,46.94
2019-05-18T09:31:46.273Z,45.59
2019-05-18T09:32:46.261Z,45.02
2019-05-18T09:33:46.257Z,45.81
2019-05-18T09:34:46.228Z,45.21
2019-05-18T09:35:46.217Z,44.54
2019-05-18T09:36:46.212Z,44.06
2019-05-18T09:37:46.198Z,44.35
2019-05-18T09:38:46.193Z,44.64
2019-05-18T09:39:46.182Z,45.59
2019-05-18T09:40:46.174Z,46.75
2019-05-18T09:41:46.156Z,45.79
2019-05-18T09:42:46.161Z,45.79
2019-05-18T09:43:46.138Z,46.65
2019-05-18T09:44:46.128Z,47.13
2019-05-18T09:45:46.113Z,45.50
2019-05-18T09:46:46.107Z,45.12
2019-05-18T09:47:46.094Z,45.12
2019-05-18T09:48:46.086Z,44.73
2019-05-18T09:49:46.088Z,43.90
2019-05-18T09:50:46.068Z,45.12
2019-05-18T09:51:46.050Z,46.96
2019-05-18T09:52:46.574Z,46.96
2019-05-18T09:53:51.635Z,45.04
2019-05-18T09:54:46.022Z,44.76
2019-05-18T09:55:46.015Z,45.21
2019-05-18T09:56:45.994Z,45.40
2019-05-18T09:57:45.987Z,45.79
2019-05-18T09:58:45.979Z,45.79
2019-05-18T09:59:45.966Z,48.21
2019-05-18T10:00:45.960Z,48.88
2019-05-18T10:01:45.954Z,48.02
2019-05-18T10:02:45.936Z,48.11
2019-05-18T10:03:45.925Z,46.79
2019-05-18T10:04:45.916Z,46.60
2019-05-18T10:05:45.912Z,46.03
2019-05-18T10:06:45.896Z,45.74
2019-05-18T10:07:45.888Z,46.03
2019-05-18T10:08:45.875Z,46.98
2019-05-18T10:09:45.862Z,46.81
2019-05-18T10:10:45.851Z,48.25
2019-05-18T10:11:45.841Z,46.14
2019-05-18T10:12:45.833Z,47.97
2019-05-18T10:13:45.822Z,47.10
2019-05-18T10:14:45.815Z,46.43
2019-05-18T10:15:45.802Z,46.43
2019-05-18T10:16:45.798Z,46.26
2019-05-18T10:17:45.781Z,45.88
2019-05-18T10:18:45.773Z,45.50
2019-05-18T10:19:45.766Z,42.69
2019-05-18T10:20:45.752Z,42.60
2019-05-18T10:21:45.741Z,41.63
2019-05-18T10:22:59.014Z,43.07
2019-05-18T10:23:45.729Z,44.32
2019-05-18T10:24:45.714Z,43.94
2019-05-18T10:25:45.713Z,44.03
2019-05-18T10:26:45.693Z,41.93
2019-05-18T10:27:45.685Z,42.60
2019-05-18T10:28:45.679Z,43.55
2019-05-18T10:29:46.711Z,44.61
2019-05-18T10:30:45.650Z,45.57
2019-05-18T10:31:45.642Z,45.76
2019-05-18T10:32:45.642Z,46.24
2019-05-18T10:33:45.622Z,46.36
2019-05-18T10:34:45.616Z,45.40
2019-05-18T10:35:45.600Z,43.96
2019-05-18T10:36:45.592Z,42.04
2019-05-18T10:37:45.592Z,43.10
2019-05-18T10:38:45.575Z,45.88
2019-05-18T10:39:45.564Z,45.88
2019-05-18T10:40:45.553Z,47.22
2019-05-18T10:41:45.541Z,45.88
2019-05-18T10:42:45.539Z,46.77
2019-05-18T10:43:46.793Z,43.10
2019-05-18T10:44:45.518Z,41.66
2019-05-18T10:45:45.511Z,42.06
2019-05-18T10:46:45.496Z,43.98
2019-05-18T10:47:45.490Z,41.66
2019-05-18T10:48:45.482Z,42.52
2019-05-18T10:49:45.475Z,42.71
2019-05-18T10:50:45.459Z,44.06
2019-05-18T10:51:45.453Z,44.54
2019-05-18T10:52:45.439Z,41.29
2019-05-18T10:53:45.432Z,40.50
2019-05-18T10:54:45.422Z,39.83
2019-05-18T10:55:45.412Z,39.83
2019-05-18T10:56:45.404Z,41.56
2019-05-18T10:57:45.394Z,42.04
2019-05-18T10:58:45.389Z,40.50
2019-05-18T10:59:45.383Z,42.71
2019-05-18T11:00:45.368Z,41.73
2019-05-18T11:01:45.359Z,41.63
2019-05-18T11:02:45.347Z,42.61
2019-05-18T11:03:45.337Z,42.33
2019-05-18T11:04:45.328Z,43.48
2019-05-18T11:05:45.319Z,42.33
2019-05-18T11:06:45.308Z,41.83
2019-05-18T11:07:45.297Z,40.77
2019-05-18T11:08:45.288Z,40.10
2019-05-18T11:09:45.281Z,41.63
2019-05-18T11:10:45.269Z,40.48
2019-05-18T11:11:45.259Z,41.54
2019-05-18T11:12:45.256Z,42.40
2019-05-18T11:13:45.244Z,40.84
2019-05-18T11:14:45.237Z,41.42
2019-05-18T11:15:45.224Z,43.15
2019-05-18T11:16:45.211Z,45.26
2019-05-18T11:17:45.201Z,45.16
2019-05-18T11:18:45.191Z,44.90
2019-05-18T11:19:45.185Z,45.47
2019-05-18T11:20:45.170Z,44.03
2019-05-18T11:21:45.168Z,42.10
2019-05-18T11:22:45.159Z,42.86
2019-05-18T11:23:47.944Z,43.05
2019-05-18T11:24:45.138Z,42.50
2019-05-18T11:25:45.136Z,44.13
2019-05-18T11:26:45.114Z,44.13
2019-05-18T11:27:45.108Z,43.46
2019-05-18T11:28:45.101Z,41.63
2019-05-18T11:29:45.094Z,41.73
2019-05-18T11:30:45.083Z,43.27
2019-05-18T11:31:45.072Z,41.63
2019-05-18T11:32:45.059Z,41.63
2019-05-18T11:33:45.050Z,42.30
2019-05-18T11:34:45.039Z,42.11
2019-05-18T11:35:45.039Z,41.71
2019-05-18T11:36:45.026Z,41.33
2019-05-18T11:37:45.014Z,42.38
2019-05-18T11:38:45.011Z,43.73
2019-05-18T11:39:44.994Z,44.42
2019-05-18T11:40:44.983Z,45.86
2019-05-18T11:41:44.992Z,45.67
2019-05-18T11:42:44.966Z,42.69
2019-05-18T11:43:44.956Z,41.52
2019-05-18T11:44:44.945Z,42.21
2019-05-18T11:45:44.931Z,42.47
2019-05-18T11:46:44.921Z,43.82
2019-05-18T11:47:44.913Z,44.20
2019-05-18T11:48:44.904Z,44.32
2019-05-18T11:49:44.900Z,43.74
2019-05-18T11:50:44.884Z,43.74
2019-05-18T11:51:44.879Z,42.40
2019-05-18T11:52:44.869Z,42.21
2019-05-18T11:53:57.520Z,42.60
2019-05-18T11:54:44.847Z,42.21
2019-05-18T11:55:44.838Z,42.11
2019-05-18T11:56:44.875Z,43.17
2019-05-18T11:57:44.817Z,44.03
2019-05-18T11:58:44.808Z,43.36
2019-05-18T11:59:44.797Z,43.46
2019-05-18T12:00:44.795Z,43.94
2019-05-18T12:01:44.777Z,43.84
2019-05-18T12:02:44.771Z,43.96
2019-05-18T12:03:44.763Z,42.50
2019-05-18T12:04:44.750Z,43.84
2019-05-18T12:05:44.738Z,43.87
2019-05-18T12:06:44.737Z,42.71
2019-05-18T12:07:44.724Z,43.96
2019-05-18T12:08:44.708Z,42.13
2019-05-18T12:09:44.706Z,42.13
2019-05-18T12:10:44.687Z,44.92
2019-05-18T12:11:44.683Z,42.71
2019-05-18T12:12:44.671Z,44.27
2019-05-18T12:13:44.663Z,44.08
2019-05-18T12:14:44.657Z,43.88
2019-05-18T12:15:44.644Z,43.12
2019-05-18T12:16:44.634Z,44.08
2019-05-18T12:17:44.639Z,42.35
2019-05-18T12:18:44.617Z,43.62
2019-05-18T12:19:44.608Z,43.71
2019-05-18T12:20:44.599Z,42.37
2019-05-18T12:21:44.593Z,41.12
2019-05-18T12:22:44.571Z,40.06
2019-05-18T12:23:44.565Z,39.97
2019-05-18T12:24:44.564Z,41.50
2019-05-18T12:25:44.554Z,43.52
2019-05-18T12:26:44.543Z,43.23
2019-05-18T12:27:44.573Z,43.91
2019-05-18T12:28:44.522Z,43.54
2019-05-18T12:29:44.517Z,42.18
2019-05-18T12:30:44.502Z,40.64
2019-05-18T12:31:44.493Z,41.60
2019-05-18T12:32:44.488Z,42.18
2019-05-18T12:33:44.481Z,42.37
2019-05-18T12:34:45.332Z,41.12
2019-05-18T12:35:44.457Z,40.16
2019-05-18T12:36:44.491Z,40.83
2019-05-18T12:37:44.447Z,40.93
2019-05-18T12:38:44.430Z,41.60
2019-05-18T12:39:44.421Z,42.47
2019-05-18T12:40:44.416Z,42.76
2019-05-18T12:41:44.408Z,41.31
2019-05-18T12:42:44.405Z,39.78
2019-05-18T12:43:44.390Z,38.53
2019-05-18T12:44:44.382Z,39.29
2019-05-18T12:45:44.368Z,40.06
2019-05-18T12:46:44.367Z,40.52
2019-05-18T12:47:44.351Z,40.23
2019-05-18T12:48:44.351Z,40.52
2019-05-18T12:49:44.331Z,39.85
2019-05-18T12:50:44.321Z,40.33
2019-05-18T12:51:44.311Z,41.67
2019-05-18T12:52:44.304Z,40.81